Weather observations for the past three days for
Ahoskie, Tri-County Airport
Imperial (Metric)
Date Time (edt) Wind (mph) Vis. (mi.) Weather Sky Cond. Temperature (ºF) Relative Humidity Wind Chill (°F) Heat Index (°F) Pressure Precipitation (in)
Air Dwpt 6 hour altimeter (in) sea level (mb) 1 hr 3 hr 6 hr
Max. Min.
02 18:35 E 5 10.00 Fair CLR 90 71.8 55% 97 30.03 0.0
02 18:15 E 6 10.00 Fair CLR 91.6 72 53% 99 30.01 0.0
02 17:55 NE 9 10.00 Fair CLR 92.3 72.5 53% 101 30.02 0.0
02 17:35 NE 3 10.00 Fair CLR 93.2 71.1 49% 100 30.02 0.0
02 17:15 NE 5 10.00 Partly Cloudy SCT075 SCT090 93.4 71.6 49% 101 30.01 0.0
02 16:55 E 3 10.00 Partly Cloudy SCT075 SCT090 93.9 71.4 48% 102 30 0.0
02 16:35 SE 3 10.00 Fair CLR 93.9 71.1 48% 101 30 0.0
02 16:15 E 5 10.00 Partly Cloudy SCT090 93.6 71.2 48% 101 30.01 0.0
02 15:55 NE 6 10.00 Partly Cloudy SCT070 SCT090 93.7 71.4 48% 101 30.01 0.0
02 15:35 NE 5 10.00 Partly Cloudy SCT060 SCT070 SCT090 92.5 71.8 51% 100 30.02 0.0
02 15:15 NE 8 10.00 Mostly Cloudy SCT060 SCT070 BKN090 93.9 71.4 48% 102 30.03 0.0
02 14:55 E 7 10.00 Partly Cloudy SCT060 93.7 71.2 48% 101 30.03 0.0
02 14:35 NE 6 10.00 Fair CLR 93.4 70.2 47% 100 30.03 0.0
02 14:15 Calm 10.00 Fair CLR 93.2 70.9 48% 100 30.03 0.0
02 13:55 N 6 10.00 Fair CLR 93.4 70.7 93.7 74.7 48% 100 30.04 0.0
02 13:35 E 3 10.00 Fair CLR 92.7 71.1 49% 100 30.04 0.0
02 13:15 N 6 10.00 Fair CLR 92.5 71.1 50% 99 30.04 0.0
02 12:55 N 7 10.00 Fair CLR 91.4 71.4 52% 98 30.04 0.0
02 12:35 N 7 10.00 Fair CLR 91.6 71.2 51% 98 30.04 0.0
02 12:15 N 8 10.00 Fair CLR 91.4 70.9 51% 98 30.05 0.0
02 11:55 N 8 10.00 Fair CLR 91.4 71.1 51% 98 30.06 0.0
02 11:30 N 8 10.00 Fair CLR 90.9 71.8 54% 98 30.06 0.0
02 11:15 N 7 10.00 Fair CLR 89.6 70.7 54% 96 30.06 0.0
02 10:55 N 6 10.00 Fair CLR 88.2 71.4 58% 94 30.06 0.0
02 10:35 NE 6 10.00 Fair CLR 86.9 72.7 63% 94 30.05 0.0
02 10:15 N 5 10.00 Fair CLR 84.9 72.7 67% 91 30.05 0.0
02 09:55 N 5 10.00 Fair CLR 84.2 72.5 68% 90 30.05 0.0
02 09:35 Calm 10.00 Fair CLR 82.9 73.4 73% 89 30.05 0.0
02 09:15 NW 3 10.00 Fair CLR 81.1 73.6 78% 86 30.05 0.0
02 08:55 Calm 10.00 Fair CLR 79.7 73.6 82% 84 30.05 0.0
02 08:35 Calm 10.00 Fair CLR 78.3 74.7 89% 81 30.05 0.0
02 08:15 Calm 10.00 Fair CLR 76.3 76.1 99% 76 30.05 0.0
02 07:55 SW 3 10.00 Fair CLR 74.7 74.7 75.4 71.8 100% 30.05 0.0
02 07:35 Calm 10.00 Fair CLR 73.4 73.4 100% 30.04 0.0
02 07:15 Calm 5.00 Fair CLR 72 72 100% 30.04 0.0
02 06:55 Calm 5.00 Fair CLR 71.8 71.8 100% 30.04 0.0
02 06:35 Calm 7.00 Fair CLR 72.1 72.1 100% 30.04 0.0
02 06:15 Calm 10.00 Fair CLR 72.5 72.5 100% 30.04 0.0
02 05:55 Calm 10.00 Fair CLR 72.3 72.3 100% 30.03 0.0
02 05:35 Calm 10.00 Fair CLR 72.7 72.7 100% 30.03 0.0
02 05:15 Calm 10.00 Fair CLR 72.9 72.9 100% 30.03 0.0
02 04:55 Calm 10.00 Fair CLR 72.9 72.9 100% 30.02 0.0
02 04:35 Calm 10.00 Fair CLR 73.4 73.4 100% 30.02 0.0
02 04:15 Calm 10.00 Fair CLR 73.4 73.4 100% 30.03 0.0
02 03:55 Calm 10.00 Fair CLR 74.3 74.3 100% 30.02 0.0
02 03:35 Calm 10.00 Fair CLR 74.5 74.5 100% 30.02 0.0
02 03:15 Calm 10.00 Fair CLR 74.1 74.1 100% 30.02 0.0
02 02:55 Calm 10.00 Fair CLR 74.7 74.5 99% 30.03 0.0
02 02:35 Calm 10.00 Fair CLR 74.8 74.7 99% 30.03 0.0
02 02:15 Calm 10.00 Fair CLR 75.4 74.5 97% 74 30.04 0.0
02 01:55 Calm 10.00 Fair CLR 75.4 74.7 82 75 98% 74 30.04 0.0
02 01:35 Calm 10.00 Fair CLR 75.7 74.7 96% 75 30.04 0.0
02 01:15 Calm 10.00 Fair CLR 76.5 74.7 94% 77 30.04 0.0
02 00:55 Calm 10.00 Fair CLR 76.5 74.8 95% 77 30.04 0.0
02 00:35 Calm 10.00 Fair CLR 77.2 75 93% 78 30.03 0.0
02 00:15 S 3 10.00 Fair CLR 77.9 74.7 90% 80 30.02 0.0
01 23:55 S 3 10.00 Fair CLR 78.4 74.8 89% 82 30.02 0.0
01 23:35 S 5 10.00 Fair CLR 78.8 75.2 89% 82 30.02 0.0
01 22:55 S 3 10.00 Fair CLR 78.8 75.4 89% 82 30.02 0.0
01 22:35 S 3 10.00 Fair CLR 78.1 75.6 92% 81 30.01 0.0
01 22:15 S 3 10.00 Fair CLR 78.6 75.4 90% 82 30.01 0.0
01 21:55 Calm 10.00 Fair CLR 79 75.4 89% 83 30 0.0
01 21:35 S 5 10.00 Fair CLR 79.3 75.2 87% 84 29.99 0.0
01 21:15 Calm 10.00 Fair CLR 79.3 75 87% 84 29.99 0.0
01 20:55 Calm 10.00 Fair CLR 80.2 74.5 83% 85 29.99 0.0
01 20:35 SE 5 10.00 Fair CLR 79.5 75.2 87% 84 29.98 0.0
01 20:15 Calm 10.00 Fair CLR 79.9 75.2 86% 85 29.98 0.0
01 19:55 Calm 10.00 Fair CLR 82.6 73.8 93.2 82.6 75% 89 29.98 0.0
01 19:35 Calm 10.00 Fair CLR 84.2 73.8 71% 91 29.99 0.0
01 19:15 Calm 10.00 Fair CLR 85.5 73.4 67% 93 29.99 0.0
01 18:55 S 5 10.00 Fair CLR 86.9 72.9 63% 94 29.99 0.0
01 18:35 S 6 10.00 Fair CLR 88.2 72.1 59% 95 29.99 0.0
01 18:15 S 6 10.00 Fair CLR 88.9 72 57% 96 30 0.0
01 17:55 S 8 10.00 Fair CLR 90 72 56% 97 29.99 0.0
01 17:35 S 7 10.00 Fair CLR 90.7 72.5 55% 99 29.99 0.0
01 17:15 S 8 10.00 Fair CLR 91.4 72 53% 99 29.99 0.0
01 16:55 S 7 10.00 Fair CLR 92.1 72.5 53% 100 29.99 0.0
01 16:35 S 8 10.00 Fair CLR 92.3 71.1 50% 99 29.99 0.0
01 16:15 Calm 10.00 Fair CLR 93.2 68.4 44% 98 29.99 0.0
01 15:55 W 7 10.00 Fair CLR 91.2 68.7 48% 96 30 0.0
01 15:35 Calm 10.00 Fair CLR 91.2 67.3 45% 95 30 0.0
01 15:15 S 5 10.00 Partly Cloudy SCT060 92.8 70.3 48% 99 30.01 0.0
01 14:55 NW 5 10.00 Partly Cloudy SCT050 92.8 71.4 50% 100 30.01 0.0
01 14:35 Calm 10.00 Overcast BKN050 OVC070 91.4 70.3 50% 97 30.02 0.0
01 14:15 SW 3 10.00 Mostly Cloudy BKN050 BKN070 91.6 71.8 52% 99 30.02 0.0
01 13:55 Calm 10.00 Mostly Cloudy BKN050 BKN070 91.2 71.1 91.8 74.3 52% 98 30.02 0.0
01 13:35 S 5 10.00 Mostly Cloudy BKN049 BKN060 91 71.6 53% 98 30.02 0.0
01 13:15 Calm 10.00 Mostly Cloudy BKN047 BKN065 90.1 71.6 55% 97 30.03 0.0
01 12:55 SE 3 10.00 Mostly Cloudy BKN047 BKN065 BKN075 89.6 70.9 54% 96 30.04 0.0
01 12:35 S 3 10.00 Partly Cloudy SCT045 90.5 72 55% 98 30.04 0.0
01 12:15 S 6 10.00 Fair CLR 89.6 72.3 57% 97 30.05 0.0
01 11:55 Calm 10.00 Fair CLR 88.5 72.1 58% 96 30.06 0.0
01 11:35 Calm 10.00 Fair CLR 88.3 74.3 63% 97 30.07 0.0
01 11:15 Calm 10.00 Fair CLR 86.4 73.4 65% 94 30.07 0.0
01 10:55 SW 3 10.00 Fair CLR 85.6 72.5 65% 92 30.08 0.0
01 10:35 Calm 10.00 Partly Cloudy SCT070 84.7 72.7 67% 91 30.08 0.0
01 10:15 NW 5 10.00 Partly Cloudy SCT070 84.4 72.7 68% 91 30.08 0.0
01 09:55 Calm 10.00 Fair CLR 83.5 72.7 70% 89 30.08 0.0
01 09:35 W 5 10.00 Fair CLR 82.4 72.3 72% 88 30.08 0.0
01 09:15 W 5 10.00 Fair CLR 81.5 72.7 75% 86 30.07 0.0
01 08:55 W 5 10.00 Fair CLR 79.5 73.2 81% 83 30.08 0.0
01 08:35 SW 3 10.00 Fair CLR 78.4 75.2 90% 82 30.08 0.0
01 08:15 Calm 10.00 Fair CLR 76.3 75.2 96% 76 30.08 0.0
01 07:55 Calm 10.00 Fair CLR 74.3 74.3 74.5 70.7 100% 30.07 0.0
01 07:35 Calm 10.00 Fair CLR 72.1 72.1 100% 30.07 0.0
01 07:15 Calm 5.00 Fair CLR 71.2 71.2 100% 30.06 0.0
01 06:55 Calm 5.00 Fair CLR 71.1 71.1 100% 30.06 0.0
01 06:35 Calm 7.00 Fair CLR 70.9 70.9 100% 30.05 0.0
01 06:15 S 3 7.00 Fair CLR 71.2 71.2 100% 30.05 0.0
01 05:55 Calm 10.00 Fair CLR 72 72 100% 30.05 0.0
01 05:35 Calm 10.00 Partly Cloudy SCT095 72.5 72.5 100% 30.05 0.0
01 05:15 Calm 10.00 Overcast OVC095 72.7 72.7 100% 30.05 0.0
01 04:55 Calm 10.00 Overcast OVC095 72.5 72.5 100% 30.06 0.0
01 04:35 Calm 10.00 Overcast OVC085 72.5 72.5 100% 30.06 0.0
01 04:15 Calm 10.00 Mostly Cloudy BKN085 72 72 100% 30.06 0.0
01 03:55 Calm 10.00 Partly Cloudy SCT085 72.5 72.5 100% 30.06 0.0
01 03:35 Calm 10.00 Fair CLR 72.7 72.7 100% 30.06 0.0
01 03:15 Calm 10.00 Partly Cloudy SCT085 72.5 72.5 100% 30.07 0.0
01 02:55 Calm 10.00 Mostly Cloudy BKN085 73 73 100% 30.07 0.0
01 02:35 Calm 10.00 Fair CLR 73.2 73.2 100% 30.08 0.0
01 02:15 Calm 10.00 Fair CLR 73.8 73.8 100% 30.08 0.0
01 01:55 Calm 10.00 Fair CLR 74.3 74.1 79.9 73.8 99% 30.08 0.0
01 01:35 Calm 10.00 Fair CLR 74.8 74.1 98% 30.09 0.0
01 01:15 S 3 10.00 Fair CLR 74.3 74.3 100% 30.09 0.0
01 00:55 S 3 10.00 Partly Cloudy SCT075 74.3 74.1 99% 30.09 0.0
01 00:35 Calm 10.00 Mostly Cloudy BKN075 75 73.6 95% 73 30.09 0.0
01 00:15 Calm 10.00 Mostly Cloudy SCT065 BKN075 75.2 73.4 94% 74 30.08 0.0
31 23:55 Calm 10.00 Partly Cloudy SCT070 75.4 73.4 94% 74 30.08 0.0
31 23:35 S 3 10.00 Fair CLR 75.6 72.9 91% 75 30.08 0.0
31 23:15 S 5 10.00 Fair CLR 75.4 73 92% 74 30.08 0.0
31 22:55 Calm 10.00 Fair CLR 75.2 73.6 95% 74 30.08 0.0
31 22:35 Calm 10.00 Fair CLR 74.5 73.4 96% 30.08 0.0
31 22:15 Calm 10.00 Partly Cloudy SCT080 74.3 74.1 99% 30.08 0.0
31 21:55 Calm 10.00 Partly Cloudy SCT080 74.3 74.3 100% 30.08 0.0
31 21:35 Calm 10.00 Partly Cloudy SCT080 75.4 73.8 95% 74 30.08 0.0
31 21:15 Calm 10.00 Partly Cloudy SCT070 75.6 74.3 96% 74 30.07 0.0
31 20:55 Calm 10.00 Fair CLR 76.1 73.8 93% 76 30.06 0.0
31 20:35 Calm 10.00 Fair CLR 76.5 73.2 90% 77 30.06 0.0
31 20:15 Calm 10.00 Fair CLR 78.3 72.3 82% 81 30.05 0.0
31 19:35 Calm 10.00 Mostly Cloudy BKN090 82.2 70.5 68% 86 30.05 0.0
31 19:15 Calm 10.00 Mostly Cloudy BKN090 84.4 70 62% 89 30.05 0.0
31 18:55 Calm 10.00 Fair CLR 85.5 69.3 58% 90 30.05 0.0
31 18:35 S 5 10.00 Partly Cloudy SCT120 86.7 67.8 53% 90 30.05 0.0
31 18:15 S 5 10.00 Fair CLR 87.8 68.5 53% 92 30.05 0.0
31 17:55 S 3 10.00 Fair CLR 87.8 68.9 54% 92 30.05 0.0
31 17:35 Calm 10.00 Partly Cloudy SCT100 87.8 69.8 55% 93 30.05 0.0
31 17:15 Calm 10.00 Fair CLR 88 68.4 52% 92 30.05 0.0
31 16:55 S 5 10.00 Fair CLR 88.9 67.6 50% 92 30.05 0.0
31 16:35 S 6 10.00 Fair CLR 89.6 65.7 45% 92 30.06 0.0
31 16:15 Calm 10.00 Fair CLR 90.5 63.1 40% 92 30.05 0.0
31 15:55 S 7 10.00 Fair CLR 91.2 61.9 38% 92 30.05 0.0
31 15:35 S 5 10.00 Fair CLR 90.9 63.5 40% 92 30.06 0.0
31 15:15 SW 5 10.00 Fair CLR 90.3 64.9 43% 92 30.07 0.0
31 14:55 S 6 10.00 Fair CLR 89.6 66.7 47% 93 30.08 0.0
31 14:35 Calm 10.00 Fair CLR 89.6 68.4 50% 94 30.08 0.0
31 14:15 S 7 10.00 Fair CLR 89.6 69.3 51% 94 30.08 0.0
31 13:55 S 6 10.00 Fair CLR 89.6 67.8 89.6 68.9 49% 93 30.09 0.0
31 13:35 SE 3 10.00 Fair CLR 88.7 69.3 53% 93 30.09 0.0
31 13:15 Calm 0.00 NULL NULL 88.2 67.8 51% 92 30.09 0.0
31 12:55 S 3 10.00 Fair CLR 87.3 70 57% 92 30.1 0.0
31 12:35 Calm 10.00 Fair CLR 86.4 70 58% 91 30.1 0.0
31 12:15 Calm 10.00 Fair CLR 85.5 68.7 57% 89 30.11 0.0
31 11:55 Calm 10.00 Fair CLR 85.5 70.9 62% 91 30.12 0.0
31 11:35 N 3 10.00 Fair CLR 84 70.3 64% 89 30.12 0.0
31 11:15 Calm 0.00 NULL NULL 83.5 71.1 66% 88 30.12 0.0
31 10:55 N 3 10.00 Fair CLR 83.1 71.2 67% 88 30.12 0.0
31 10:35 NW 3 10.00 Fair CLR 82.8 71.8 70% 88 30.12 0.0
31 10:15 W 3 10.00 Fair CLR 81.1 72.1 74% 86 30.12 0.0
31 09:55 NW 3 10.00 Fair CLR 80.2 72.3 77% 84 30.11 0.0
31 09:35 Calm 10.00 Fair CLR 78.3 72.1 82% 81 30.11 0.0
31 09:15 W 5 10.00 Fair CLR 75.6 72.3 90% 75 30.11 0.0
31 08:55 W 3 10.00 Fair CLR 72.3 72.3 100% 30.11 0.0
31 08:35 W 3 10.00 Fair CLR 71.2 71.2 100% 30.11 0.0
31 08:15 Calm 10.00 Partly Cloudy SCT002 70.3 70.3 100% 30.11 0.0
31 07:55 Calm 7.00 Partly Cloudy SCT002 68.7 68.7 68.7 65.7 100% 30.12 0.0
31 07:35 Calm 7.00 Fair CLR 67.5 67.5 100% 30.12 0.0
31 07:15 Calm 2.50 Partly Cloudy SCT002 66.4 66.4 100% 30.12 0.0
31 06:55 Calm 0.50 Overcast OVC002 65.8 65.8 100% 30.11 0.0
31 06:35 S 3 0.50 Overcast OVC002 66 66 100% 30.11 0.0
31 06:15 Calm 0.25 Overcast OVC002 66.6 66.6 100% 30.1 0.0
31 05:55 Calm 0.25 Overcast OVC002 66.7 66.7 100% 30.11 0.0
31 05:35 Calm 0.25 Overcast OVC002 67.1 67.1 100% 30.1 0.0
31 05:15 Calm 0.15 Overcast OVC002 66.7 66.7 100% 30.09 0.0
31 04:55 Calm 0.25 Overcast OVC002 65.7 65.7 100% 30.1 0.0
31 04:35 Calm 1.00 Overcast OVC002 66.6 66.6 100% 30.1 0.0
31 04:15 Calm 0.25 Overcast OVC002 66.7 66.7 100% 30.1 0.0
31 03:55 Calm 0.25 Overcast OVC002 66.7 66.7 100% 30.11 0.0
31 03:35 Calm 3.00 Fair CLR 66.9 66.9 100% 30.11 0.0
31 03:15 Calm 3.00 Fair CLR 68 68 100% 30.11 0.0
31 02:55 Calm 4.00 Fair CLR 68 68 100% 30.11 0.0
31 02:35 S 3 2.00 Fair CLR 67.3 67.3 100% 30.11 0.0
31 02:15 Calm 1.75 Partly Cloudy SCT002 67.8 67.8 100% 30.11 0.0
31 01:55 Calm 0.75 Sky Obscured VV005 68.7 68.7 77 68.2 100% 30.11 0.0
31 01:35 Calm 7.00 Fair CLR 69.1 69.1 100% 30.11 0.0
31 01:15 Calm 0.50 Sky Obscured VV005 68.5 68.5 100% 30.11 0.0
31 00:55 Calm 10.00 Fair CLR 70.3 70.3 100% 30.12 0.0
31 00:35 Calm 10.00 Fair CLR 70.9 70.9 100% 30.12 0.0
31 00:15 Calm 10.00 Fair CLR 70.9 70.9 100% 30.12 0.0
30 23:55 S 3 10.00 Fair CLR 71.2 71.2 100% 30.12 0.0
30 23:35 Calm 10.00 Fair CLR 72.1 72.1 100% 30.12 0.0
30 23:15 Calm 10.00 Fair CLR 73.4 73.4 100% 30.13 0.0
30 22:55 Calm 10.00 Fair CLR 73.2 73.2 100% 30.13 0.0
30 22:35 Calm 10.00 Fair CLR 73.9 73.9 100% 30.13 0.0
30 22:15 S 5 10.00 Fair CLR 73.4 73.4 100% 30.13 0.0
30 21:55 S 5 10.00 Fair CLR 73 73 100% 30.13 0.0
30 21:35 Calm 10.00 Fair CLR 73.2 73.2 100% 30.13 0.0
30 21:15 Calm 10.00 Fair CLR 74.3 74.3 100% 30.13 0.0
30 20:55 Calm 10.00 Fair CLR 74.5 73.6 97% 30.12 0.0
30 20:35 Calm 10.00 Fair CLR 75.4 73.4 94% 74 30.11 0.0
30 20:15 Calm 10.00 Fair CLR 76.3 73.9 93% 76 30.11 0.0
30 19:55 S 3 10.00 Fair CLR 76.6 74.5 85.1 76.6 93% 77 30.11 0.0
30 19:35 Calm 10.00 Fair CLR 78.3 73.6 86% 81 30.11 0.0
30 19:15 Calm 10.00 Fair CLR 79.3 73.6 83% 83 30.12 0.0
Date Time (edt) Wind (mph) Vis. (mi.) Weather Sky Cond. Air Dwpt Max. Min. Relative Humidity Wind Chill (°F) Heat Index (°F) altimeter (in) sea level (mb) 1 hr 3 hr 6 hr
6 hour
Temperature (ºF) Pressure Precipitation (in)